Festivo — EAEQ — position and weather

sailwx.info

Track history (hours):
 
Tides and Currents Weather Stations Pressure Air Temp Water Temp Dewpoint Dewpoint Depression Visibility Wind Speed Wind Dir Waves Ship Positions

Festivo

Last reported at 2014-Sep-13 16:34 UTC. Time now 2014-Sep-16 09:22 UTC.
Position N 35°55' W 005°18'.

Length 136 m; draft 3.5 m.

Type: Cargo ship. MMSI: 225410000.

Date/timePositionNaut miles runAvg speedWind from/ knotsBaromVisibWave heightAir tempDewpointWater temp
2014-Sep-13 16:34N 35°55' W 005°18'2 2.0
2014-Sep-13 15:33N 35°54' W 005°19'0 0.0
2014-Sep-13 14:33N 35°54' W 005°19'0 0.0
2014-Sep-13 13:33N 35°54' W 005°19'0 0.0
2014-Sep-13 12:33N 35°54' W 005°19'0 0.0
2014-Sep-13 11:33N 35°54' W 005°19'0 0.0
2014-Sep-13 10:33N 35°54' W 005°19'0 0.0
2014-Sep-13 09:33N 35°54' W 005°19'0 0.0
2014-Sep-13 08:33N 35°54' W 005°19'0 0.0
2014-Sep-13 07:34N 35°54' W 005°19'5 0.1
2014-Sep-11 10:06N 35°57' W 005°15'5 8.6
2014-Sep-11 09:34N 35°54' W 005°19'0 0.0
2014-Sep-11 08:34N 35°54' W 005°19'0 0.0
2014-Sep-11 07:33N 35°54' W 005°19'0 0.3
2014-Sep-11 06:33N 35°54' W 005°19'  
2014-Sep-08 09:33N 35°57' W 005°16'5 4.6
2014-Sep-08 08:33N 35°54' W 005°19'0 0.0
2014-Sep-08 07:32N 35°54' W 005°19'0 0.0
2014-Sep-08 06:32N 35°54' W 005°19'0 0.0
2014-Sep-08 05:32N 35°54' W 005°19'1 0.8
2014-Sep-08 04:33N 35°54' W 005°19'  
2014-Sep-04 09:33N 35°55' W 005°18'2 2.0
2014-Sep-04 08:33N 35°54' W 005°19'0 0.0
2014-Sep-04 07:33N 35°54' W 005°19'1 0.6
2014-Sep-04 06:33N 35°54' W 005°19'  
Track history (hours):
 
Tides and Currents Weather Stations Pressure Air Temp Water Temp Dewpoint Dewpoint Depression Visibility Wind Speed Wind Dir Waves Ship Positions

Festivo

Last reported at 2014-Sep-13 16:34 UTC. Time now 2014-Sep-16 09:22 UTC.
Position N 35°55' W 005°18'.

Length 136 m; draft 3.5 m.

Type: Cargo ship. MMSI: 225410000.

Date/timePositionNaut miles runAvg speedWind from/ knotsBaromVisibWave heightAir tempDewpointWater temp
2014-Sep-13 16:34N 35°55' W 005°18'2 2.0
2014-Sep-13 15:33N 35°54' W 005°19'0 0.0
2014-Sep-13 14:33N 35°54' W 005°19'0 0.0
2014-Sep-13 13:33N 35°54' W 005°19'0 0.0
2014-Sep-13 12:33N 35°54' W 005°19'0 0.0
2014-Sep-13 11:33N 35°54' W 005°19'0 0.0
2014-Sep-13 10:33N 35°54' W 005°19'0 0.0
2014-Sep-13 09:33N 35°54' W 005°19'0 0.0
2014-Sep-13 08:33N 35°54' W 005°19'0 0.0
2014-Sep-13 07:34N 35°54' W 005°19'5 0.1
2014-Sep-11 10:06N 35°57' W 005°15'5 8.6
2014-Sep-11 09:34N 35°54' W 005°19'0 0.0
2014-Sep-11 08:34N 35°54' W 005°19'0 0.0
2014-Sep-11 07:33N 35°54' W 005°19'0 0.3
2014-Sep-11 06:33N 35°54' W 005°19'  
2014-Sep-08 09:33N 35°57' W 005°16'5 4.6
2014-Sep-08 08:33N 35°54' W 005°19'0 0.0
2014-Sep-08 07:32N 35°54' W 005°19'0 0.0
2014-Sep-08 06:32N 35°54' W 005°19'0 0.0
2014-Sep-08 05:32N 35°54' W 005°19'1 0.8
2014-Sep-08 04:33N 35°54' W 005°19'  
2014-Sep-04 09:33N 35°55' W 005°18'2 2.0
2014-Sep-04 08:33N 35°54' W 005°19'0 0.0
2014-Sep-04 07:33N 35°54' W 005°19'1 0.6
2014-Sep-04 06:33N 35°54' W 005°19'  

Dump ship's entire track history